Evansville Regional (EVV)

 

Airport Diagram
Current Weather/Forecast (VFR Conditions)
METAR KEVV 132354Z VRB03KT 10SM CLR 24/20 A2999 RMK AO2 SLP151 60025 T02390200 10294 20228 51003
TAF KEVV 132338Z 1400/1424 VRB04KT P6SM VCSH BKN150 FM140100 VRB04KT P6SM BKN150 FM140500 VRB03KT 6SM BR BKN120 FM141100 VRB03KT 6SM BR VCSH SCT030 OVC100 FM141500 06005KT P6SM SCT035 BKN120 FM142000 06006KT P6SM VCTS SCT040CB

Airport Information

All Charts
General
Chart Name View
AIRPORT DIAGRAM
TAKEOFF MINIMUMS
ALTERNATE MINIMUMS
RADAR MINIMUMS
HOT SPOT

Approaches
Chart Name Download
ILS OR LOC RWY 04
ILS OR LOC RWY 22
RNAV (GPS) RWY 04
RNAV (GPS) RWY 18
RNAV (GPS) RWY 22
RNAV (GPS) RWY 36
VOR RWY 04


Airport Statistics
Departures Arrivals Local
All Collected Stats since June 2016: 120 118 2
2020 Stats: 32 41 0
August Stats: 1 3 0

Inbound Traffic (Arrivals) - 0

No inbound traffic.


Outbound Traffic (Departures) - 0

No outbound traffic.


Local Traffic (Pattern) - 0

No local traffic.